Terminal Aerodrome Forecast
Issued by NWS

Home | Current Version | Previous Version | Text Only | Print | Product List | Glossary On
Versions: 1 2 3 4 5 6 7 8 9 10 11 12 13 14 15 16
000
FTUS43 KDTX 231100
TAFDET
TAF
KDET 231123Z 2312/2412 36011KT P6SM BKN018 OVC024
     FM231400 01013KT P6SM BKN028 OVC035
     FM231700 01014KT P6SM SCT035 OVC045
     FM232200 01010KT P6SM BKN060
     FM240200 35007KT P6SM SKC=

USA.gov is the U.S. government's official web portal to all federal, state and local government web resources and services.